This is the latest recevied weather packets stored in our database for station/object EA5GTE-12. If no packets are shown the sender has not sent any weather packets the latest 10 day(s).
| Time | Temp. | Humidity | Pressure | Rain* | Wind** | Luminosity | Snow |
|---|---|---|---|---|---|---|---|
| 1777216012 | 30° C | 12% | 938.5 hPa | - | - | - | - |
| 1777215111 | 26.67° C | 15% | 938.5 hPa | - | - | - | - |
| 1777214212 | 29.44° C | 12% | 938.6 hPa | - | - | - | - |
| 1777213312 | 28.33° C | 12% | 938.9 hPa | - | - | - | - |
| 1777212411 | 27.22° C | 13% | 939 hPa | - | - | - | - |
| 1777211511 | 27.22° C | 13% | 939.3 hPa | - | - | - | - |
| 1777210611 | 27.22° C | 13% | 939.4 hPa | - | - | - | - |
| 1777209711 | 26.67° C | 13% | 939.6 hPa | - | - | - | - |
| 1777207913 | 26.67° C | 14% | 939.7 hPa | - | - | - | - |
| 1777207013 | 25.56° C | 15% | 940 hPa | - | - | - | - |
| 1777206113 | 26.11° C | 14% | 940 hPa | - | - | - | - |
| 1777205213 | 25.56° C | 21% | 940.1 hPa | - | - | - | - |
| 1777204313 | 27.22° C | 18% | 940.3 hPa | - | - | - | - |
| 1777203413 | 25.56° C | 20% | 940.4 hPa | - | - | - | - |
| 1777202513 | 25° C | 24% | 940.9 hPa | - | - | - | - |
| 1777201613 | 25.56° C | 22% | 940.9 hPa | - | - | - | - |
| 1777200713 | 25° C | 25% | 941.2 hPa | - | - | - | - |
| 1777199812 | 25° C | 25% | 941.1 hPa | - | - | - | - |
| 1777198912 | 25.56° C | 24% | 941.2 hPa | - | - | - | - |
| 1777198012 | 26.67° C | 22% | 941.1 hPa | - | - | - | - |
| 1777197112 | 25.56° C | 23% | 941.4 hPa | - | - | - | - |
| 1777196212 | 24.44° C | 29% | 941.4 hPa | - | - | - | - |
| 1777195312 | 23.33° C | 33% | 941.6 hPa | - | - | - | - |
| 1777194412 | 23.89° C | 36% | 941.6 hPa | - | - | - | - |
| 1777193511 | 25° C | 33% | 941.6 hPa | - | - | - | - |
* Rain since midnight (hover to see other rain measurements)
** Current wind speed in m/s (hover to see current wind gust speed)